Time;durP1;ratioP1;P1;durP2;ratioP2;P2;SDS_P1;SDS_P2;PMS_P1;PMS_P2;Temp;Humidity;BMP_temperature;BMP_pressure;BME280_temperature;BME280_humidity;BME280_pressure;Samples;Min_cycle;Max_cycle;Signal;HPM_P1;HPM_P2
2021/08/03 08:46:15;;;;;;;3.55;3.10;;;17.30;99.90;;;;;;5111217;27;20299;-81
2021/08/03 08:48:43;;;;;;;3.60;2.83;;;17.30;99.90;;;;;;5085019;28;20032;-82
2021/08/03 08:51:08;;;;;;;5.35;3.00;;;17.40;99.90;;;;;;5085492;28;20528;-81
2021/08/03 08:53:34;;;;;;;3.08;2.42;;;17.40;99.90;;;;;;5072375;28;20049;-81
2021/08/03 08:56:02;;;;;;;4.53;2.15;;;17.60;99.90;;;;;;5089434;28;20032;-82
2021/08/03 08:58:31;;;;;;;1.90;1.58;;;18.00;99.90;;;;;;5089270;28;20134;-81
2021/08/03 09:00:57;;;;;;;2.70;2.00;;;18.20;99.90;;;;;;5090732;28;20419;-81
2021/08/03 09:03:23;;;;;;;2.10;1.80;;;18.40;99.90;;;;;;5105806;28;20055;-81
2021/08/03 09:05:59;;;;;;;2.83;1.80;;;18.50;99.90;;;;;;5059243;28;20067;-81
2021/08/03 09:08:37;;;;;;;3.08;2.08;;;18.60;99.90;;;;;;5100419;28;20482;-81
2021/08/03 09:11:22;;;;;;;5.28;1.65;;;18.60;99.90;;;;;;5093919;28;20726;-81
2021/08/03 09:14:01;;;;;;;1.58;1.30;;;18.70;99.90;;;;;;5109139;28;20024;-82
2021/08/03 09:16:46;;;;;;;1.38;1.27;;;18.90;99.90;;;;;;5101568;28;20040;-81
2021/08/03 09:19:29;;;;;;;1.83;1.08;;;19.10;99.90;;;;;;5087782;28;20028;-81
2021/08/03 09:22:15;;;;;;;1.67;1.33;;;19.30;99.90;;;;;;5071880;28;20055;-81
2021/08/03 09:24:42;;;;;;;1.80;1.70;;;19.50;99.90;;;;;;5094380;28;20060;-81
2021/08/03 09:27:08;;;;;;;1.10;1.00;;;19.70;99.90;;;;;;5088733;28;20036;-81
2021/08/03 09:29:46;;;;;;;1.73;1.63;;;20.00;99.90;;;;;;5088133;28;20062;-82
2021/08/03 09:32:12;;;;;;;1.67;1.42;;;19.90;99.90;;;;;;5090094;28;20616;-81
2021/08/03 09:34:38;;;;;;;1.95;1.63;;;20.00;99.90;;;;;;5105849;28;20033;-82
2021/08/03 09:37:04;;;;;;;1.33;1.13;;;20.00;99.90;;;;;;5092420;28;20402;-81
2021/08/03 09:39:39;;;;;;;1.60;1.38;;;20.20;99.90;;;;;;5091419;28;20100;-81
2021/08/03 09:42:16;;;;;;;1.27;1.10;;;20.30;99.90;;;;;;5102571;28;20028;-82
2021/08/03 09:44:49;;;;;;;1.60;1.50;;;20.40;99.90;;;;;;5109964;28;20027;-82
2021/08/03 09:47:15;;;;;;;7.97;1.88;;;20.40;99.90;;;;;;5071797;28;20024;-81
2021/08/03 09:49:44;;;;;;;1.45;1.35;;;20.30;99.90;;;;;;5070646;28;20067;-82
2021/08/03 09:52:15;;;;;;;1.40;1.30;;;20.40;99.90;;;;;;5073759;28;20038;-81
2021/08/03 09:54:41;;;;;;;1.95;1.40;;;20.40;99.90;;;;;;5091933;28;20039;-82
2021/08/03 09:57:24;;;;;;;1.27;1.17;;;20.60;99.90;;;;;;5081179;28;20032;-82
2021/08/03 09:59:52;;;;;;;1.50;1.40;;;20.70;99.90;;;;;;5083465;28;20032;-82
2021/08/03 10:02:23;;;;;;;1.65;1.40;;;20.70;99.90;;;;;;5074635;28;20047;-81
2021/08/03 10:04:51;;;;;;;2.00;1.40;;;20.70;99.90;;;;;;5067793;28;20481;-82
2021/08/03 10:07:17;;;;;;;2.38;1.33;;;20.90;99.90;;;;;;5078372;28;20032;-81
2021/08/03 10:09:44;;;;;;;1.45;1.20;;;21.00;99.90;;;;;;5066708;28;20025;-82
2021/08/03 10:12:10;;;;;;;1.20;1.10;;;21.00;99.90;;;;;;5078930;28;20024;-81
2021/08/03 10:14:36;;;;;;;1.20;1.00;;;21.00;99.90;;;;;;5077946;28;20039;-82
2021/08/03 10:17:02;;;;;;;1.95;1.40;;;21.00;99.90;;;;;;5096252;28;20107;-82
2021/08/03 10:19:33;;;;;;;1.30;1.20;;;21.00;99.90;;;;;;5093873;28;20047;-81
2021/08/03 10:22:05;;;;;;;1.90;1.27;;;21.00;99.90;;;;;;5096185;28;20036;-81
2021/08/03 10:24:36;;;;;;;1.23;1.10;;;21.00;99.90;;;;;;5094756;28;20135;-81
2021/08/03 10:27:13;;;;;;;1.17;1.08;;;21.20;99.90;;;;;;5094975;28;20036;-81
2021/08/03 10:29:48;;;;;;;1.33;1.10;;;21.30;99.90;;;;;;5041924;28;20039;-82
2021/08/03 10:32:53;;;;;;;1.27;1.10;;;21.40;99.90;;;;;;5059696;28;20112;-82
2021/08/03 10:35:27;;;;;;;1.58;0.80;;;21.40;99.90;;;;;;5057655;28;20406;-82
2021/08/03 10:37:58;;;;;;;0.80;0.80;;;21.40;99.90;;;;;;5057221;28;20117;-82
2021/08/03 10:40:49;;;;;;;1.55;1.00;;;21.40;99.90;;;;;;5078673;28;20039;-82
2021/08/03 10:43:34;;;;;;;2.47;0.90;;;21.40;99.90;;;;;;5083039;28;20117;-81
2021/08/03 10:46:06;;;;;;;1.85;0.80;;;21.40;99.90;;;;;;5094572;28;20032;-81
2021/08/03 10:48:37;;;;;;;1.10;1.00;;;21.40;99.90;;;;;;5075150;28;20032;-81
2021/08/03 10:51:15;;;;;;;1.65;1.15;;;21.40;99.90;;;;;;5080454;28;20020;-81
2021/08/03 10:54:00;;;;;;;1.38;1.08;;;21.30;99.90;;;;;;5074976;28;20055;-82
2021/08/03 10:56:26;;;;;;;1.50;1.10;;;21.30;99.90;;;;;;5094486;28;20024;-81
2021/08/03 10:59:30;;;;;;;1.23;0.95;;;21.30;99.90;;;;;;5094189;28;20043;-81
2021/08/03 11:01:58;;;;;;;1.02;0.93;;;21.20;99.90;;;;;;5084107;28;20044;-82
2021/08/03 11:04:43;;;;;;;1.65;0.98;;;21.30;99.90;;;;;;5060502;28;20059;-82
2021/08/03 11:07:36;;;;;;;0.80;0.80;;;21.40;99.90;;;;;;5073753;28;20051;-82
2021/08/03 11:10:22;;;;;;;0.80;0.75;;;21.50;99.90;;;;;;5070213;28;20036;-82
2021/08/03 11:12:52;;;;;;;0.93;0.70;;;21.60;99.90;;;;;;5076671;28;20054;-82
2021/08/03 11:15:21;;;;;;;1.23;0.93;;;21.70;99.90;;;;;;5087318;28;20039;-82
2021/08/03 11:17:51;;;;;;;2.42;1.05;;;21.80;99.90;;;;;;5085659;28;20119;-82
2021/08/03 11:20:35;;;;;;;0.80;0.80;;;21.90;99.90;;;;;;5074062;28;20029;-81
2021/08/03 11:23:05;;;;;;;1.92;0.80;;;22.00;99.90;;;;;;5073502;28;20024;-82
2021/08/03 11:25:31;;;;;;;0.85;0.85;;;22.00;99.90;;;;;;5073380;28;20482;-82
2021/08/03 11:28:26;;;;;;;1.65;1.00;;;22.00;99.90;;;;;;5088857;28;20029;-82
2021/08/03 11:30:52;;;;;;;1.15;0.80;;;22.10;99.90;;;;;;5035127;28;20127;-82
2021/08/03 11:33:20;;;;;;;1.15;0.80;;;22.00;99.90;;;;;;5073127;28;20557;-82
2021/08/03 11:35:46;;;;;;;0.80;0.80;;;22.10;99.90;;;;;;5073394;28;20024;-82
2021/08/03 11:38:14;;;;;;;1.27;0.85;;;22.10;99.90;;;;;;5073183;28;20055;-82
2021/08/03 11:40:41;;;;;;;1.27;1.00;;;22.00;99.90;;;;;;5083302;28;20028;-82
2021/08/03 11:43:07;;;;;;;0.73;0.73;;;21.90;99.90;;;;;;5089642;28;20032;-82
2021/08/03 11:45:36;;;;;;;0.75;0.60;;;21.80;99.90;;;;;;5084870;28;20032;-82
2021/08/03 11:48:05;;;;;;;0.80;0.80;;;21.70;99.90;;;;;;5073133;28;20035;-82
2021/08/03 11:50:32;;;;;;;1.10;1.00;;;21.70;99.90;;;;;;5072709;28;20036;-82
2021/08/03 11:53:22;;;;;;;1.27;0.80;;;21.70;99.90;;;;;;5080350;28;20447;-82
2021/08/03 11:55:53;;;;;;;1.00;0.90;;;21.70;99.90;;;;;;5075734;28;20535;-82
2021/08/03 11:58:24;;;;;;;0.57;0.57;;;21.80;99.90;;;;;;5059940;28;20037;-82
2021/08/03 12:00:55;;;;;;;0.90;0.70;;;21.90;99.90;;;;;;5073029;28;20043;-82
2021/08/03 12:03:32;;;;;;;0.85;0.50;;;22.00;99.90;;;;;;5087498;28;20474;-82
2021/08/03 12:06:01;;;;;;;1.23;0.90;;;21.90;99.90;;;;;;5075762;28;20050;-82
2021/08/03 12:08:39;;;;;;;1.08;0.70;;;21.90;99.90;;;;;;5061226;28;20130;-82
2021/08/03 12:11:05;;;;;;;0.70;0.70;;;21.90;99.90;;;;;;5072011;28;20036;-82
2021/08/03 12:13:36;;;;;;;0.90;0.90;;;21.90;99.90;;;;;;5076131;28;20032;-82
2021/08/03 12:16:06;;;;;;;2.17;0.82;;;21.90;99.90;;;;;;5075937;28;20032;-82
2021/08/03 12:18:43;;;;;;;0.75;0.70;;;22.00;99.90;;;;;;5073530;28;20048;-82
2021/08/03 12:21:10;;;;;;;1.17;0.80;;;22.00;99.90;;;;;;5073884;28;20478;-82
2021/08/03 12:23:38;;;;;;;0.95;0.80;;;22.00;99.90;;;;;;5056101;28;20064;-82
2021/08/03 12:26:06;;;;;;;0.68;0.68;;;22.00;99.90;;;;;;5081337;28;20453;-82
2021/08/03 12:28:34;;;;;;;1.10;0.88;;;21.90;99.90;;;;;;5059971;28;20028;-82
2021/08/03 12:31:27;;;;;;;1.10;0.70;;;22.00;99.90;;;;;;5092844;28;20024;-82
2021/08/03 12:33:56;;;;;;;1.25;0.85;;;22.00;99.90;;;;;;5085750;28;20517;-82
2021/08/03 12:36:22;;;;;;;1.67;0.80;;;21.90;99.90;;;;;;5068480;28;20031;-82
2021/08/03 12:39:04;;;;;;;1.05;0.85;;;22.00;99.90;;;;;;5072167;28;20119;-82
2021/08/03 12:41:30;;;;;;;1.27;1.00;;;22.00;99.90;;;;;;5085269;28;20032;-82
2021/08/03 12:44:00;;;;;;;0.80;0.77;;;21.60;99.90;;;;;;5081557;28;20082;-83
2021/08/03 12:46:45;;;;;;;0.80;0.80;;;21.60;99.90;;;;;;5072897;28;20100;-82
2021/08/03 12:49:11;;;;;;;1.17;0.80;;;21.60;99.90;;;;;;5054210;28;20032;-81
2021/08/03 12:51:37;;;;;;;1.33;0.75;;;21.60;99.90;;;;;;5072013;28;20029;-81
2021/08/03 12:54:20;;;;;;;0.63;0.63;;;21.70;99.90;;;;;;5055320;28;20689;-82
2021/08/03 12:56:59;;;;;;;0.63;0.63;;;21.80;99.90;;;;;;5054479;28;20044;-82
2021/08/03 12:59:32;;;;;;;0.80;0.80;;;21.90;99.90;;;;;;5054270;28;20111;-81
2021/08/03 13:01:59;;;;;;;0.80;0.80;;;21.80;99.90;;;;;;5071307;28;20028;-82
2021/08/03 13:04:25;;;;;;;1.65;0.73;;;21.80;99.90;;;;;;5067974;28;20032;-81
2021/08/03 13:06:57;;;;;;;1.13;0.82;;;21.70;99.90;;;;;;5074312;28;20082;-82
2021/08/03 13:09:31;;;;;;;0.60;0.55;;;21.50;99.90;;;;;;5092025;28;20443;-82
2021/08/03 13:11:58;;;;;;;1.00;0.90;;;21.30;99.90;;;;;;5068466;28;20029;-81
2021/08/03 13:14:24;;;;;;;1.10;0.73;;;21.30;99.90;;;;;;5071343;28;20108;-81
2021/08/03 13:16:56;;;;;;;1.30;1.08;;;21.20;99.90;;;;;;5062110;28;20508;-81
2021/08/03 13:19:29;;;;;;;0.93;0.80;;;21.20;99.90;;;;;;5070766;28;20037;-81
2021/08/03 13:21:56;;;;;;;0.70;0.68;;;21.20;99.90;;;;;;5071538;28;20072;-81
2021/08/03 13:24:23;;;;;;;0.90;0.80;;;21.10;99.90;;;;;;5084945;28;20028;-81
2021/08/03 13:26:49;;;;;;;0.93;0.88;;;21.10;99.90;;;;;;5080129;28;20024;-82
2021/08/03 13:29:15;;;;;;;0.77;0.77;;;21.00;99.90;;;;;;5071275;28;20028;-81
2021/08/03 13:31:44;;;;;;;1.00;0.90;;;20.90;99.90;;;;;;5071068;28;20028;-81
2021/08/03 13:34:13;;;;;;;0.77;0.77;;;20.80;99.90;;;;;;5075646;28;20033;-84
2021/08/03 13:36:39;;;;;;;0.63;0.57;;;20.60;99.90;;;;;;5070881;28;20030;-83
2021/08/03 13:39:05;;;;;;;0.98;0.50;;;20.10;99.90;;;;;;5066513;28;20043;-84
2021/08/03 13:41:33;;;;;;;2.50;0.73;;;19.40;99.90;;;;;;5074549;28;20025;-83
2021/08/03 13:43:59;;;;;;;2.08;0.73;;;18.50;99.90;;;;;;5080152;28;20028;-82
2021/08/03 13:46:25;;;;;;;2.78;0.88;;;17.70;99.90;;;;;;5046444;28;20639;-82
2021/08/03 13:48:50;;;;;;;2.13;0.93;;;17.10;99.90;;;;;;5086273;28;20092;-82
2021/08/03 13:51:16;;;;;;;2.22;1.00;;;16.50;99.90;;;;;;5080344;28;20028;-83
2021/08/03 13:53:43;;;;;;;6.28;0.90;;;16.10;99.90;;;;;;5101474;28;20028;-82
2021/08/03 13:56:11;;;;;;;0.82;0.70;;;15.80;99.90;;;;;;5058809;28;20040;-82
2021/08/03 13:58:37;;;;;;;5.15;0.80;;;15.60;99.90;;;;;;5058477;28;20143;-83
2021/08/03 14:01:06;;;;;;;3.28;0.77;;;15.30;99.90;;;;;;5085150;28;20479;-82
2021/08/03 14:03:32;;;;;;;0.82;0.60;;;15.10;99.90;;;;;;5054878;28;20694;-83
2021/08/03 14:05:58;;;;;;;1.27;0.70;;;15.00;99.90;;;;;;5089779;28;20482;-82
2021/08/03 14:08:23;;;;;;;2.38;0.77;;;14.90;99.90;;;;;;5078401;28;20085;-84
2021/08/03 14:10:49;;;;;;;1.40;0.77;;;14.80;99.90;;;;;;5074493;28;20082;-83
2021/08/03 14:13:24;;;;;;;2.33;0.73;;;14.70;99.90;;;;;;5042254;28;20451;-83
2021/08/03 14:16:07;;;;;;;2.58;1.10;;;14.70;99.90;;;;;;5056539;28;20074;-83
2021/08/03 14:18:35;;;;;;;1.13;0.80;;;14.70;99.90;;;;;;5093512;28;20493;-83
2021/08/03 14:21:02;;;;;;;0.90;0.65;;;14.90;99.90;;;;;;5095222;28;20024;-84
2021/08/03 14:23:31;;;;;;;0.80;0.70;;;15.00;99.90;;;;;;5077416;28;20036;-84
2021/08/03 14:25:57;;;;;;;1.35;0.70;;;15.10;99.90;;;;;;5074424;28;20032;-83
2021/08/03 14:28:23;;;;;;;1.30;0.90;;;15.20;99.90;;;;;;5064703;28;20402;-82
2021/08/03 14:30:49;;;;;;;2.03;0.65;;;15.30;99.90;;;;;;5074290;28;20032;-82
2021/08/03 14:33:14;;;;;;;1.13;0.80;;;15.50;99.90;;;;;;5056552;28;20049;-82
2021/08/03 14:35:40;;;;;;;1.85;0.70;;;15.80;99.90;;;;;;5090039;28;20036;-82
2021/08/03 14:38:06;;;;;;;1.42;0.60;;;16.00;99.90;;;;;;5074518;28;20032;-81
2021/08/03 14:40:33;;;;;;;1.23;0.80;;;15.90;99.90;;;;;;5089893;28;20032;-82
2021/08/03 14:42:59;;;;;;;1.25;1.10;;;16.00;99.90;;;;;;5074302;28;20537;-82
2021/08/03 14:45:24;;;;;;;1.48;1.02;;;16.20;99.90;;;;;;5072842;28;20040;-82
2021/08/03 14:47:50;;;;;;;1.10;1.00;;;16.20;99.90;;;;;;5072608;28;20033;-81
2021/08/03 14:50:16;;;;;;;1.35;0.90;;;16.40;99.90;;;;;;5079374;28;20028;-81
2021/08/03 14:52:41;;;;;;;1.38;0.80;;;16.50;99.90;;;;;;5094480;28;20082;-81
2021/08/03 14:55:07;;;;;;;1.90;1.13;;;16.60;99.90;;;;;;5076632;28;20050;-81
2021/08/03 14:57:33;;;;;;;2.00;1.13;;;16.60;99.90;;;;;;5092764;28;20161;-81
2021/08/03 14:59:59;;;;;;;1.20;0.90;;;16.50;99.90;;;;;;5074648;28;20036;-81
2021/08/03 15:02:25;;;;;;;2.25;0.90;;;16.50;99.90;;;;;;5094398;28;20031;-82
2021/08/03 15:04:50;;;;;;;2.58;1.13;;;16.50;99.90;;;;;;5075220;28;20038;-81
2021/08/03 15:07:16;;;;;;;1.55;1.05;;;16.40;99.90;;;;;;5075757;28;20062;-82
2021/08/03 15:09:42;;;;;;;3.85;0.80;;;16.40;99.90;;;;;;5072882;28;20029;-81
2021/08/03 15:12:08;;;;;;;2.83;1.23;;;16.30;99.90;;;;;;5093015;28;20028;-81
2021/08/03 15:14:33;;;;;;;0.93;0.80;;;16.20;99.90;;;;;;5063363;28;20650;-82
2021/08/03 15:16:59;;;;;;;1.33;1.00;;;16.10;99.90;;;;;;5059979;28;20130;-81
2021/08/03 15:19:26;;;;;;;1.25;1.10;;;16.00;99.90;;;;;;5041508;28;20474;-82
2021/08/03 15:21:53;;;;;;;1.27;0.88;;;16.00;99.90;;;;;;5076178;28;20047;-82
2021/08/03 15:24:18;;;;;;;1.33;1.15;;;16.00;99.90;;;;;;5074099;28;20032;-82
2021/08/03 15:26:44;;;;;;;2.15;1.25;;;16.00;99.90;;;;;;5041032;28;20040;-81
2021/08/03 15:29:10;;;;;;;2.78;1.50;;;16.00;99.90;;;;;;5055243;28;20036;-82
2021/08/03 15:31:36;;;;;;;3.45;1.40;;;16.00;99.90;;;;;;5055500;28;20021;-81
2021/08/03 15:34:01;;;;;;;2.05;1.35;;;15.90;99.90;;;;;;5039286;28;20106;-81
2021/08/03 15:36:29;;;;;;;3.60;1.75;;;15.80;99.90;;;;;;5039288;28;20044;-82
2021/08/03 15:38:55;;;;;;;2.42;1.00;;;15.80;99.90;;;;;;5085519;28;20132;-81
2021/08/03 15:41:20;;;;;;;3.45;1.20;;;15.80;99.90;;;;;;5091783;28;20059;-82
2021/08/03 15:43:46;;;;;;;1.58;1.30;;;15.80;99.90;;;;;;5062524;28;20036;-82
2021/08/03 15:46:14;;;;;;;2.67;1.50;;;15.80;99.90;;;;;;5071605;28;20123;-82
2021/08/03 15:48:40;;;;;;;1.73;1.52;;;15.80;99.90;;;;;;5054312;28;20037;-82
2021/08/03 15:51:08;;;;;;;1.63;1.15;;;15.80;99.90;;;;;;5055747;28;20036;-82
2021/08/03 15:53:35;;;;;;;1.38;1.17;;;15.70;99.90;;;;;;5065409;28;20486;-82
2021/08/03 15:56:01;;;;;;;2.08;1.20;;;15.80;99.90;;;;;;5055316;28;20036;-82
2021/08/03 15:58:27;;;;;;;1.65;1.27;;;15.80;99.90;;;;;;5055957;28;20782;-82
2021/08/03 16:00:53;;;;;;;3.00;1.33;;;15.80;99.90;;;;;;5073377;28;20040;-82
2021/08/03 16:03:19;;;;;;;1.70;1.08;;;15.80;99.90;;;;;;5074026;28;20406;-82
2021/08/03 16:05:44;;;;;;;1.10;0.73;;;15.80;99.90;;;;;;5060903;28;20043;-82
2021/08/03 16:08:10;;;;;;;1.25;0.85;;;15.90;99.90;;;;;;5068714;28;20050;-81
2021/08/03 16:10:37;;;;;;;1.00;0.90;;;16.00;99.90;;;;;;5074917;28;20115;-82
2021/08/03 16:13:04;;;;;;;1.80;1.00;;;16.10;99.90;;;;;;5070653;28;20390;-81
2021/08/03 16:15:31;;;;;;;0.77;0.70;;;16.20;99.90;;;;;;5074580;28;20032;-82
2021/08/03 16:18:11;;;;;;;2.17;1.13;;;16.20;99.90;;;;;;5059315;28;20082;-82
2021/08/03 16:20:38;;;;;;;3.00;1.00;;;16.30;99.90;;;;;;5080764;28;20547;-82
2021/08/03 16:23:06;;;;;;;1.25;1.02;;;16.30;99.90;;;;;;5077547;28;20520;-82
2021/08/03 16:25:33;;;;;;;1.45;0.95;;;16.30;99.90;;;;;;5066389;28;20040;-82
2021/08/03 16:28:03;;;;;;;1.02;0.93;;;16.30;99.90;;;;;;5069738;28;20082;-82
2021/08/03 16:30:29;;;;;;;1.00;0.82;;;16.30;99.90;;;;;;5071089;28;20029;-81
2021/08/03 16:33:01;;;;;;;2.10;0.90;;;16.30;99.90;;;;;;5073671;28;20068;-82
2021/08/03 16:35:30;;;;;;;1.60;0.95;;;16.30;99.90;;;;;;5057423;28;20509;-82
2021/08/03 16:38:04;;;;;;;1.17;0.88;;;16.20;99.90;;;;;;5080301;28;20036;-81
2021/08/03 16:40:35;;;;;;;1.73;1.30;;;16.30;99.90;;;;;;5068973;28;20032;-82
2021/08/03 16:43:02;;;;;;;0.95;0.85;;;16.20;99.90;;;;;;5067881;28;20032;-82
2021/08/03 16:45:29;;;;;;;0.93;0.88;;;16.30;99.90;;;;;;5074984;28;20051;-82
2021/08/03 16:47:55;;;;;;;0.80;0.80;;;16.30;99.90;;;;;;5071028;28;20047;-82
2021/08/03 16:50:22;;;;;;;1.13;1.02;;;16.40;99.90;;;;;;5061162;28;20032;-82
2021/08/03 16:52:49;;;;;;;0.85;0.82;;;16.50;99.90;;;;;;5057674;28;20093;-82
2021/08/03 16:55:15;;;;;;;0.90;0.90;;;16.60;99.90;;;;;;5093694;28;20039;-82
2021/08/03 16:57:42;;;;;;;3.15;1.20;;;16.70;99.90;;;;;;5084482;28;20521;-82
2021/08/03 17:00:11;;;;;;;1.10;0.98;;;16.80;99.90;;;;;;5068753;28;20056;-82
2021/08/03 17:02:59;;;;;;;0.90;0.80;;;16.70;99.90;;;;;;5070219;28;20039;-82
2021/08/03 17:05:40;;;;;;;3.33;1.13;;;16.70;99.90;;;;;;5084711;28;20033;-82
2021/08/03 17:08:36;;;;;;;3.15;1.92;;;16.70;99.90;;;;;;5075012;28;20043;-83
2021/08/03 17:11:22;;;;;;;1.17;1.08;;;16.80;99.90;;;;;;5050500;28;20043;-82
2021/08/03 17:13:59;;;;;;;1.70;1.50;;;16.80;99.90;;;;;;5067690;28;20116;-82
2021/08/03 17:16:29;;;;;;;1.23;1.10;;;16.70;99.90;;;;;;5077354;28;20056;-82
2021/08/03 17:18:56;;;;;;;1.63;1.20;;;16.60;99.90;;;;;;5073239;28;20046;-81
2021/08/03 17:21:31;;;;;;;1.55;1.00;;;16.60;99.90;;;;;;5076220;28;20501;-83
2021/08/03 17:24:09;;;;;;;1.13;0.90;;;16.60;99.90;;;;;;5051199;28;20032;-82
2021/08/03 17:26:36;;;;;;;1.35;1.10;;;16.60;99.90;;;;;;5055266;28;20033;-82
2021/08/03 17:29:05;;;;;;;1.80;1.10;;;16.60;99.90;;;;;;5070162;28;20020;-82
2021/08/03 17:31:36;;;;;;;1.60;1.38;;;16.60;99.90;;;;;;5075496;28;20016;-82
2021/08/03 17:34:04;;;;;;;1.65;1.30;;;16.60;99.90;;;;;;5070087;28;20032;-82
2021/08/03 17:36:31;;;;;;;2.00;1.30;;;16.60;99.90;;;;;;5087714;28;20032;-82
2021/08/03 17:38:58;;;;;;;1.67;1.15;;;16.50;99.90;;;;;;5070430;28;20032;-82
2021/08/03 17:41:26;;;;;;;1.50;1.38;;;16.50;99.90;;;;;;5051017;28;20067;-82
2021/08/03 17:43:53;;;;;;;2.70;1.33;;;16.40;99.90;;;;;;5057172;28;20031;-82
2021/08/03 17:46:23;;;;;;;1.50;1.35;;;16.30;99.90;;;;;;5048815;28;20066;-82
2021/08/03 17:48:52;;;;;;;1.40;1.02;;;16.30;99.90;;;;;;5033149;28;20616;-82
2021/08/03 17:51:27;;;;;;;1.15;1.05;;;16.20;99.90;;;;;;5087247;28;20035;-81
2021/08/03 17:53:55;;;;;;;1.73;1.30;;;16.30;99.90;;;;;;5072365;28;20032;-82
2021/08/03 17:56:28;;;;;;;1.17;1.08;;;16.20;99.90;;;;;;5085688;28;20061;-82
2021/08/03 17:58:59;;;;;;;1.38;1.27;;;16.20;99.90;;;;;;5080171;28;20043;-82
2021/08/03 18:01:25;;;;;;;2.08;1.52;;;16.30;99.90;;;;;;5059741;28;20066;-82
2021/08/03 18:03:53;;;;;;;2.67;1.58;;;16.20;99.90;;;;;;5070836;28;20036;-82
2021/08/03 18:06:19;;;;;;;2.25;1.42;;;16.20;99.90;;;;;;5081172;28;20834;-83
2021/08/03 18:08:46;;;;;;;1.92;1.55;;;16.20;99.90;;;;;;5082242;28;20032;-81
2021/08/03 18:11:13;;;;;;;1.10;1.00;;;16.20;99.90;;;;;;5061015;28;20055;-81
2021/08/03 18:13:39;;;;;;;2.25;2.05;;;16.20;99.90;;;;;;5077778;28;20425;-81
2021/08/03 18:16:07;;;;;;;1.30;1.20;;;16.10;99.90;;;;;;5063780;28;20056;-79
2021/08/03 18:18:33;;;;;;;2.70;1.50;;;16.10;99.90;;;;;;5080843;28;20060;-81
2021/08/03 18:21:00;;;;;;;1.48;1.23;;;16.10;99.90;;;;;;5054344;28;20029;-81
2021/08/03 18:23:26;;;;;;;1.02;0.93;;;16.10;99.90;;;;;;5072318;28;20047;-81
2021/08/03 18:26:02;;;;;;;1.83;1.48;;;16.10;99.90;;;;;;5082174;28;20032;-80
2021/08/03 18:28:32;;;;;;;4.07;1.35;;;16.10;99.90;;;;;;5070066;28;20028;-81
2021/08/03 18:31:12;;;;;;;1.33;1.10;;;16.00;99.90;;;;;;5060580;28;20043;-80
2021/08/03 18:33:45;;;;;;;1.20;1.10;;;16.00;99.90;;;;;;5080554;28;20063;-80
2021/08/03 18:36:15;;;;;;;1.50;1.40;;;16.10;99.90;;;;;;5079392;28;20036;-80
2021/08/03 18:38:50;;;;;;;1.52;1.42;;;16.00;99.90;;;;;;5066545;28;20039;-79
2021/08/03 18:41:18;;;;;;;2.47;1.33;;;16.00;99.90;;;;;;5074273;28;20032;-81
2021/08/03 18:43:49;;;;;;;2.00;1.40;;;16.00;99.90;;;;;;5056330;28;20067;-81
2021/08/03 18:46:26;;;;;;;1.00;0.93;;;16.00;99.90;;;;;;5074517;28;20033;-82
2021/08/03 18:48:54;;;;;;;1.15;1.05;;;16.00;99.90;;;;;;5044436;28;20028;-82
2021/08/03 18:51:20;;;;;;;1.15;1.05;;;15.90;99.90;;;;;;5088430;28;20032;-81
2021/08/03 18:53:46;;;;;;;1.55;1.23;;;15.90;99.90;;;;;;5055789;28;20033;-83
2021/08/03 18:56:12;;;;;;;1.17;1.08;;;15.90;99.90;;;;;;5044442;28;20457;-81
2021/08/03 18:58:39;;;;;;;1.02;0.93;;;15.90;99.90;;;;;;5053855;28;20040;-81
2021/08/03 19:01:06;;;;;;;1.20;1.10;;;15.90;99.90;;;;;;5064048;28;20082;-79
2021/08/03 19:03:32;;;;;;;1.33;1.13;;;15.90;99.90;;;;;;5101910;28;20036;-79
2021/08/03 19:06:42;;;;;;;1.40;1.30;;;15.90;99.90;;;;;;5059157;28;20582;-80
2021/08/03 19:09:13;;;;;;;1.40;1.30;;;15.80;99.90;;;;;;5062129;28;20065;-80
2021/08/03 19:11:41;;;;;;;2.53;1.38;;;15.80;99.90;;;;;;5050859;28;20059;-79
2021/08/03 19:14:36;;;;;;;1.73;1.20;;;15.70;99.90;;;;;;5081789;28;20879;-80
2021/08/03 19:17:05;;;;;;;1.23;1.13;;;15.60;99.90;;;;;;5078659;28;20032;-80
2021/08/03 19:19:33;;;;;;;1.92;1.20;;;15.60;99.90;;;;;;5086849;28;20032;-79
2021/08/03 19:22:13;;;;;;;1.30;1.20;;;15.50;99.90;;;;;;5074920;28;20178;-80
2021/08/03 19:24:44;;;;;;;1.20;1.10;;;15.50;99.90;;;;;;5069729;28;20059;-80
2021/08/03 19:27:11;;;;;;;4.00;1.10;;;15.40;99.90;;;;;;5072675;28;20063;-81
2021/08/03 19:29:38;;;;;;;1.48;1.20;;;15.40;99.90;;;;;;5060193;28;20385;-79
2021/08/03 19:32:04;;;;;;;1.27;1.17;;;15.30;99.90;;;;;;5068095;28;20185;-81
2021/08/03 19:34:30;;;;;;;1.98;1.30;;;15.20;99.90;;;;;;5065338;28;20236;-80
2021/08/03 19:36:56;;;;;;;1.55;1.10;;;15.20;99.90;;;;;;5076153;28;20017;-81
2021/08/03 19:39:23;;;;;;;1.30;1.00;;;15.20;99.90;;;;;;5066129;28;20482;-81
2021/08/03 19:41:49;;;;;;;2.10;1.35;;;15.20;99.90;;;;;;5062743;28;20020;-81
2021/08/03 19:44:15;;;;;;;1.17;1.02;;;15.10;99.90;;;;;;5065064;28;20502;-80
2021/08/03 19:46:44;;;;;;;1.42;1.10;;;15.20;99.90;;;;;;5061978;28;20028;-81
2021/08/03 19:49:19;;;;;;;2.03;1.23;;;15.10;99.90;;;;;;5070266;28;20567;-81
2021/08/03 19:51:46;;;;;;;2.63;1.15;;;15.10;99.90;;;;;;5066468;28;20028;-80
2021/08/03 19:54:13;;;;;;;1.23;0.90;;;15.00;99.90;;;;;;5076394;28;20032;-80
2021/08/03 19:56:42;;;;;;;1.10;1.00;;;14.90;99.90;;;;;;5085076;28;20047;-79
2021/08/03 19:59:09;;;;;;;1.35;0.85;;;15.00;99.90;;;;;;5061218;28;20036;-79
2021/08/03 20:01:36;;;;;;;2.28;1.10;;;14.90;99.90;;;;;;5077921;28;20033;-81
2021/08/03 20:04:02;;;;;;;1.15;0.95;;;14.80;99.90;;;;;;5084756;28;20437;-80
2021/08/03 20:06:28;;;;;;;1.55;0.95;;;14.80;99.90;;;;;;5081381;28;20028;-82
2021/08/03 20:08:54;;;;;;;1.73;1.08;;;14.70;99.90;;;;;;5085872;28;20398;-80
2021/08/03 20:11:22;;;;;;;1.25;1.15;;;14.70;99.90;;;;;;5048012;28;20402;-80
2021/08/03 20:13:48;;;;;;;1.25;1.10;;;14.70;99.90;;;;;;5077318;28;20070;-80
2021/08/03 20:16:15;;;;;;;1.20;0.93;;;14.70;99.90;;;;;;5086187;28;20062;-81
2021/08/03 20:18:42;;;;;;;1.65;0.95;;;14.70;99.90;;;;;;5085421;28;20031;-80
2021/08/03 20:21:08;;;;;;;2.40;1.20;;;14.60;99.90;;;;;;5065473;28;20556;-80
2021/08/03 20:23:34;;;;;;;4.70;1.17;;;14.70;99.90;;;;;;5051288;28;20566;-81
2021/08/03 20:26:11;;;;;;;1.83;1.10;;;14.70;99.90;;;;;;5052282;28;20039;-81
2021/08/03 20:28:46;;;;;;;2.70;1.02;;;14.70;99.90;;;;;;5074872;28;20024;-80
2021/08/03 20:31:15;;;;;;;4.25;1.23;;;14.70;99.90;;;;;;5079873;28;20530;-81
2021/08/03 20:33:45;;;;;;;3.30;1.00;;;14.70;99.90;;;;;;5056334;28;20517;-81
2021/08/03 20:36:14;;;;;;;3.17;1.00;;;14.70;99.90;;;;;;5069387;28;20119;-82
2021/08/03 20:38:41;;;;;;;1.98;1.00;;;14.60;99.90;;;;;;5047622;28;20532;-82
2021/08/03 20:41:11;;;;;;;6.72;0.90;;;14.50;99.90;;;;;;5048445;28;20028;-82
2021/08/03 20:43:54;;;;;;;3.35;0.93;;;14.50;99.90;;;;;;5057754;28;20060;-83
2021/08/03 20:46:30;;;;;;;1.30;1.20;;;14.60;99.90;;;;;;5060712;28;20041;-84
2021/08/03 20:48:59;;;;;;;2.45;1.15;;;14.50;99.90;;;;;;5067592;28;20550;-83
2021/08/03 20:51:27;;;;;;;1.42;1.05;;;14.50;99.90;;;;;;5059015;28;20020;-82
2021/08/03 20:53:54;;;;;;;1.40;1.00;;;14.40;99.90;;;;;;5069549;28;20032;-84
2021/08/03 20:56:23;;;;;;;1.10;0.95;;;14.40;99.90;;;;;;5083860;28;20043;-84
2021/08/03 20:58:50;;;;;;;2.38;1.10;;;14.30;99.90;;;;;;5088126;28;20512;-83
2021/08/03 21:01:33;;;;;;;2.17;1.10;;;14.30;99.90;;;;;;5038627;28;20259;-84
2021/08/03 21:04:07;;;;;;;1.05;0.85;;;14.20;99.90;;;;;;5051250;28;20031;-83
2021/08/03 21:06:34;;;;;;;1.20;1.10;;;14.20;99.90;;;;;;5066964;28;20107;-82
2021/08/03 21:09:05;;;;;;;1.10;1.00;;;14.20;99.90;;;;;;5083388;28;20029;-82
2021/08/03 21:11:32;;;;;;;1.40;1.27;;;14.20;99.90;;;;;;5072316;28;20474;-82
2021/08/03 21:14:02;;;;;;;2.67;1.00;;;14.20;99.90;;;;;;5085864;28;20040;-82
2021/08/03 21:16:47;;;;;;;1.20;1.10;;;14.20;99.90;;;;;;5081107;28;20047;-82
2021/08/03 21:19:31;;;;;;;2.38;1.35;;;14.20;99.90;;;;;;5071832;28;20456;-82
2021/08/03 21:22:15;;;;;;;1.27;1.17;;;14.20;99.90;;;;;;5074156;28;20064;-82
2021/08/03 21:25:01;;;;;;;1.20;1.10;;;14.20;99.90;;;;;;5083004;28;20047;-82
2021/08/03 21:27:45;;;;;;;1.30;1.20;;;14.20;99.90;;;;;;5064126;28;20079;-82
2021/08/03 21:30:30;;;;;;;4.40;1.35;;;14.20;99.90;;;;;;5074421;28;20047;-82
2021/08/03 21:33:15;;;;;;;2.13;1.40;;;14.20;99.90;;;;;;5079402;28;20094;-82
2021/08/03 21:35:59;;;;;;;1.15;1.02;;;14.20;99.90;;;;;;5082948;28;20039;-82
2021/08/03 21:38:44;;;;;;;1.52;1.30;;;14.20;99.90;;;;;;5087096;28;20043;-82
2021/08/03 21:41:29;;;;;;;2.05;1.10;;;14.20;99.90;;;;;;5080563;28;20075;-82
2021/08/03 21:44:13;;;;;;;2.20;1.20;;;14.20;99.90;;;;;;5074290;28;20086;-82
2021/08/03 21:46:57;;;;;;;1.20;1.10;;;14.20;99.90;;;;;;5085379;28;20520;-82
2021/08/03 21:49:42;;;;;;;1.63;1.52;;;14.20;99.90;;;;;;5071499;28;20090;-82
2021/08/03 21:52:08;;;;;;;3.25;1.60;;;14.20;99.90;;;;;;5073689;28;20064;-82